Home > Products > Valid Products > TAF

000
FTUS44 KBMX 020500
TAFEET
TAF
KEET 020525Z 0206/0306 00000KT P6SM SKC
      TEMPO 0210/0213 4SM BR
     FM021500 17005KT P6SM SCT040 SCT130=



000
FTUS44 KBMX 020500
TAFMGM
TAF
KMGM 020525Z 0206/0306 00000KT P6SM SCT250
     FM020800 00000KT 3SM BR SCT250
      TEMPO 0209/0213 3/4SM BR BKN004
     FM021400 17006KT P6SM SCT040 BKN250=



000
FTUS44 KBMX 020500
TAFTOI
TAF
KTOI 020525Z 0206/0306 00000KT P6SM SCT250
     FM020800 00000KT 3SM BR SCT004 SCT250
      TEMPO 0209/0213 3/4SM BR BKN004
     FM021400 16006KT P6SM SCT040 BKN250=



000
FTUS44 KBMX 020500
TAFBHM
TAF
KBHM 020525Z 0206/0306 00000KT P6SM SKC
     FM021500 19007KT P6SM SCT040 SCT130=



000
FTUS44 KBMX 020500
TAFANB
TAF
KANB 020525Z 0206/0306 00000KT P6SM SKC
     FM021100 00000KT 4SM BR SKC
     FM021400 19005KT P6SM SCT040=



000
FTUS44 KBMX 020500
TAFTCL
TAF
KTCL 020525Z 0206/0306 00000KT P6SM SKC
     FM021000 VRB03KT P6SM BKN050
      TEMPO 0212/0214 5SM BR FEW005 BKN015
     FM021500 18006KT P6SM BKN040=



000
FTUS44 KBMX 012300
TAFMGM
TAF
KMGM 012335Z 0200/0224 12003KT P6SM SCT070 SCT150
     FM020800 00000KT 5SM BR SCT250
      TEMPO 0209/0213 2SM BR SCT002
     FM021500 17006KT P6SM SCT040 BKN250=



000
FTUS44 KBMX 012300
TAFBHM
TAF
KBHM 012335Z 0200/0224 13004KT P6SM FEW070 SCT100
     FM021500 19007KT P6SM SCT040 SCT130=



000
FTUS44 KBMX 012300
TAFTCL
TAF
KTCL 012335Z 0200/0224 13002KT P6SM FEW060 SCT100
     FM021000 VRB03KT P6SM BKN050
      TEMPO 0213/0216 BKN020
     FM021600 18006KT P6SM BKN040=



000
FTUS44 KBMX 012300
TAFTOI
TAF
KTOI 012335Z 0200/0224 12003KT P6SM SCT045
     FM020700 00000KT 4SM BR SCT250
      TEMPO 0209/0213 2SM BR SCT002
     FM021400 17005KT P6SM SCT040 BKN250=



000
FTUS44 KBMX 012300
TAFANB
TAF
KANB 012335Z 0200/0224 00000KT P6SM SCT070
     FM021500 19005KT P6SM SCT040=



000
FTUS44 KBMX 012300
TAFEET
TAF
KEET 012335Z 0200/0224 17002KT P6SM SCT070 SCT100
     FM021500 17005KT P6SM SCT040 SCT130=



000
FTUS44 KBMX 011700
TAFTCL
TAF
KTCL 011731Z 0118/0218 19003KT P6SM SCT050=



000
FTUS44 KBMX 011700
TAFBHM
TAF
KBHM 011731Z 0118/0218 17005KT P6SM SCT050=



000
FTUS44 KBMX 011700
TAFMGM
TAF
KMGM 011731Z 0118/0218 12003KT P6SM SCT050
     FM020900 00000KT 5SM BR SCT250
     FM021400 10004KT P6SM BKN250=



000
FTUS44 KBMX 011700
TAFANB
TAF
KANB 011731Z 0118/0218 14002KT P6SM SCT050=



000
FTUS44 KBMX 011700
TAFTOI
TAF
KTOI 011731Z 0118/0218 12003KT P6SM SCT045
     FM020700 00000KT 4SM BR SCT250
     FM021400 12002KT P6SM BKN250=



000
FTUS44 KBMX 011700
TAFEET
TAF
KEET 011731Z 0118/0218 17002KT P6SM SCT050=



000
FTUS44 KBMX 011200 AAA
TAFMGM
TAF AMD
KMGM 011257Z 0113/0212 11003KT P6SM SKC
      TEMPO 0113/0114 4SM BR
     FM020900 00000KT 5SM BR SKC=



000
FTUS44 KBMX 011200 AAA
TAFTOI
TAF AMD
KTOI 011255Z 0113/0212 00000KT 3SM BR OVC002
     FM011400 00000KT 6SM BR SCT002
     FM011500 12003KT P6SM SKC
     FM020600 00000KT 4SM BR SKC=



000
FTUS44 KBMX 011100
TAFBHM
TAF
KBHM 011120Z 0112/0212 17005KT P6SM SCT150
     FM020300 00000KT P6SM SKC=



000
FTUS44 KBMX 011100
TAFTOI
TAF
KTOI 011120Z 0112/0212 00000KT 3SM BR SCT002
      TEMPO 0112/0113 1SM BR OVC002
     FM011400 12003KT P6SM SKC
     FM020600 00000KT 4SM BR SKC=



000
FTUS44 KBMX 011100
TAFMGM
TAF
KMGM 011120Z 0112/0212 00000KT 4SM BR SCT001
      TEMPO 0112/0113 1SM BR OVC001
     FM011400 11003KT P6SM SKC
     FM020900 00000KT 5SM BR SKC=



000
FTUS44 KBMX 011100
TAFEET
TAF
KEET 011120Z 0112/0212 17004KT P6SM SCT150
     FM020300 00000KT P6SM SKC=



000
FTUS44 KBMX 011100
TAFTCL
TAF
KTCL 011120Z 0112/0212 17004KT P6SM SCT150
     FM020300 00000KT P6SM SKC=



000
FTUS44 KBMX 011100
TAFANB
TAF
KANB 011120Z 0112/0212 17004KT P6SM SCT150
     FM020300 00000KT P6SM SKC=



000
FTUS44 KBMX 011100 AAE
TAFMGM
TAF AMD
KMGM 011100Z 0111/0206 00000KT 4SM BR SKC
      TEMPO 0111/0113 1SM BR OVC001
     FM011400 11003KT P6SM SKC=



000
FTUS44 KBMX 011000 AAD
TAFMGM
TAF AMD
KMGM 011053Z 0111/0206 00000KT 4SM BR SKC
      TEMPO 0111/0113 1 1/2SM BR
     FM011400 11003KT P6SM SKC=



000
FTUS44 KBMX 011000 CCA
TAFMGM
TAF COR
KMGM 011001Z 0110/0206 00000KT 6SM BR SKC
      TEMPO 0111/0113 4SM BR
     FM011400 11003KT P6SM SKC=



000
FTUS44 KBMX 011000 AAC
TAFMGM
TAF AMD
KMGM 011000Z 0110/0206 00000KT 6SM BR SKC
     FM011400 11003KT P6SM SKC=



000
FTUS44 KBMX 010900 AAA
TAFEET
TAF AMD
KEET 010938Z 0110/0206 00000KT P6SM SKC
      TEMPO 0111/0113 4SM BR
     FM011400 17003KT P6SM SKC=



000
FTUS44 KBMX 010900 AAA
TAFANB
TAF AMD
KANB 010937Z 0110/0206 00000KT P6SM SKC
      TEMPO 0111/0113 4SM BR
     FM011400 15003KT P6SM SKC=



000
FTUS44 KBMX 010900 AAB
TAFMGM
TAF AMD
KMGM 010936Z 0110/0206 00000KT 3SM BR SKC
      TEMPO 0110/0112 1SM BR
     FM011400 11003KT P6SM SKC=



000
FTUS44 KBMX 010900 AAA
TAFTCL
TAF AMD
KTCL 010936Z 0110/0206 00000KT P6SM SCT080
      TEMPO 0111/0113 5SM BR
     FM011400 14003KT P6SM SKC=



000
FTUS44 KBMX 010700 AAA
TAFMGM
TAF AMD
KMGM 010713Z 0107/0206 00000KT 2SM BR SKC
      TEMPO 0107/0111 1SM BR
     FM011400 11003KT P6SM SKC=



000
FTUS44 KBMX 010500 CCA
TAFTOI
TAF COR
KTOI 010550Z 0106/0206 00000KT 6SM BR SCT001
      TEMPO 0107/0109 3SM BR BKN001
     FM010900 00000KT 3SM BR SCT001
      TEMPO 0109/0113 1SM BR OVC001
     FM011400 12003KT P6SM SKC=



000
FTUS44 KBMX 010500
TAFBHM
TAF
KBHM 010525Z 0106/0206 00000KT P6SM SKC
     FM011400 16003KT P6SM SKC=



000
FTUS44 KBMX 010500
TAFTOI
TAF
KTOI 010525Z 0106/0206 00000KT 5SM BR SKC
      TEMPO 0108/0112 3SM BR
     FM011400 12003KT P6SM SKC=



000
FTUS44 KBMX 010500
TAFTCL
TAF
KTCL 010525Z 0106/0206 00000KT P6SM SCT080
      TEMPO 0109/0112 5SM BR
     FM011400 14003KT P6SM SKC=



000
FTUS44 KBMX 010500
TAFMGM
TAF
KMGM 010525Z 0106/0206 00000KT P6SM SKC
      TEMPO 0109/0112 5SM BR
     FM011400 11003KT P6SM SKC=



000
FTUS44 KBMX 010500
TAFEET
TAF
KEET 010525Z 0106/0206 00000KT P6SM SKC
      TEMPO 0108/0112 4SM BR
     FM011400 17003KT P6SM SKC=



000
FTUS44 KBMX 010500
TAFANB
TAF
KANB 010525Z 0106/0206 00000KT P6SM SKC
      TEMPO 0108/0112 4SM BR
     FM011400 15003KT P6SM SKC=



000
FTUS44 KBMX 302300
TAFMGM
TAF
KMGM 302321Z 0100/0124 00000KT P6SM SKC
      TEMPO 0109/0112 5SM BR
     FM011400 11003KT P6SM SKC=



000
FTUS44 KBMX 302300
TAFANB
TAF
KANB 302321Z 0100/0124 00000KT P6SM SKC
      TEMPO 0108/0112 4SM BR
     FM011400 15003KT P6SM SKC=



000
FTUS44 KBMX 302300
TAFTOI
TAF
KTOI 302321Z 0100/0124 00000KT P6SM SKC
      TEMPO 0108/0112 4SM BR
     FM011400 12003KT P6SM SKC=



000
FTUS44 KBMX 302300
TAFEET
TAF
KEET 302321Z 0100/0124 00000KT P6SM SKC
      TEMPO 0108/0112 4SM BR
     FM011400 17003KT P6SM SKC=



000
FTUS44 KBMX 302300
TAFBHM
TAF
KBHM 302321Z 0100/0124 10004KT P6SM SCT050
     FM010200 00000KT P6SM SKC
     FM011400 16003KT P6SM SKC=



000
FTUS44 KBMX 302300
TAFTCL
TAF
KTCL 302321Z 0100/0124 00000KT P6SM SCT080
      TEMPO 0109/0112 5SM BR
     FM011400 14003KT P6SM SKC=



000
FTUS44 KBMX 301700 RRA
TAFTCL
TAF
KTCL 301739Z 3018/0118 07005KT P6SM SCT045
     FM010000 00000KT P6SM SKC
      TEMPO 0109/0112 5SM BR=



000
FTUS44 KBMX 301700 RRA
TAFTOI
TAF
KTOI 301739Z 3018/0118 VRB03KT P6SM OVC026
     FM301900 VRB03KT P6SM BKN035
     FM010000 00000KT P6SM SKC
      TEMPO 0108/0112 4SM BR=



000
FTUS44 KBMX 301700 RRA
TAFMGM
TAF
KMGM 301739Z 3018/0118 VRB03KT P6SM BKN035
     FM010000 00000KT P6SM SKC
      TEMPO 0109/0112 5SM BR=



000
FTUS44 KBMX 301700 RRA
TAFEET
TAF
KEET 301739Z 3018/0118 06005KT P6SM SCT030
     FM010000 00000KT P6SM SKC
      TEMPO 0108/0112 4SM BR=



000
FTUS44 KBMX 301700 RRA
TAFANB
TAF
KANB 301739Z 3018/0118 07005KT P6SM SCT045
     FM010000 00000KT P6SM SKC
      TEMPO 0108/0112 4SM BR=



000
FTUS44 KBMX 301700 RRA
TAFBHM
TAF
KBHM 301739Z 3018/0118 06005KT P6SM SCT030
     FM010200 00000KT P6SM SKC=



000
FTUS44 KBMX 301600 AAC
TAFBHM
TAF AMD
KBHM 301621Z 3016/0112 12005KT P6SM BKN015
     FM301730 10005KT P6SM SCT025
     FM010200 00000KT P6SM SKC=



000
FTUS44 KBMX 301500 AAC
TAFEET
TAF AMD
KEET 301558Z 3016/0112 09003KT P6SM OVC018
     FM301730 09004KT P6SM SCT025
     FM010800 00000KT 4SM BR SKC=



000
FTUS44 KBMX 301500 AAC
TAFMGM
TAF AMD
KMGM 301546Z 3016/0112 07004KT P6SM OVC024
     FM301730 06004KT P6SM SCT025
     FM010400 00000KT P6SM SKC=



000
FTUS44 KBMX 301500 AAB
TAFBHM
TAF AMD
KBHM 301541Z 3016/0112 12005KT P6SM OVC012
     FM301630 08005KT P6SM SCT025
     FM010200 00000KT P6SM SKC=



000
FTUS44 KBMX 301500 AAA
TAFANB
TAF AMD
KANB 301512Z 3015/0112 00000KT P6SM OVC018
     FM301600 05003KT P6SM SKC
     FM010200 00000KT P6SM SKC
     FM010800 00000KT 4SM BR SKC=



000
FTUS44 KBMX 301500 AAB
TAFMGM
TAF AMD
KMGM 301509Z 3015/0112 05003KT P6SM OVC024
     FM301600 06003KT P6SM SKC
     FM010400 00000KT P6SM SKC=



000
FTUS44 KBMX 301300 AAA
TAFBHM
TAF AMD
KBHM 301334Z 3014/0112 09006KT P6SM BKN007
     FM301500 07005KT P6SM BKN015
     FM301600 05005KT P6SM SCT025
     FM010200 00000KT P6SM SKC=



000
FTUS44 KBMX 301300 AAB
TAFEET
TAF AMD
KEET 301329Z 3013/0112 VRB03KT P6SM SKC
      TEMPO 3014/3016 BKN016
     FM010800 00000KT 4SM BR SKC=



000
FTUS44 KBMX 301200 AAA
TAFEET
TAF AMD
KEET 301251Z 3013/0112 VRB03KT P6SM SKC
     FM010800 00000KT 4SM BR SKC=



000
FTUS44 KBMX 301200 AAA
TAFMGM
TAF AMD
KMGM 301246Z 3013/0112 05003KT P6SM OVC022
     FM301500 06003KT P6SM SKC
     FM010400 00000KT P6SM SKC=



000
FTUS44 KBMX 301200 AAA
TAFTCL
TAF AMD
KTCL 301200Z 3012/0112 00000KT P6SM BKN015
      TEMPO 3012/3014 OVC006
     FM301500 07003KT P6SM SKC
     FM010200 00000KT P6SM SKC=



000
FTUS44 KBMX 301100 CCA
TAFEET
TAF COR
KEET 301128Z 3012/0112 00000KT 6SM BR OVC015
     FM301500 04003KT P6SM SKC
     FM010200 00000KT P6SM SKC
     FM010900 00000KT 4SM BR SKC=



000
FTUS44 KBMX 301100
TAFMGM
TAF
KMGM 301122Z 3012/0112 04004KT P6SM OVC015
     FM301500 06003KT P6SM SKC
     FM010400 00000KT P6SM SKC=



000
FTUS44 KBMX 301100
TAFBHM
TAF
KBHM 301122Z 3012/0112 06003KT P6SM SCT015
      TEMPO 3012/3014 BKN015
     FM301500 04003KT P6SM SKC
     FM010200 00000KT P6SM SKC=



000
FTUS44 KBMX 301100
TAFANB
TAF
KANB 301122Z 3012/0112 00000KT P6SM OVC015
     FM301500 05003KT P6SM SKC
     FM010200 00000KT P6SM SKC
     FM010800 00000KT 4SM BR SKC=



000
FTUS44 KBMX 301100
TAFTCL
TAF
KTCL 301122Z 3012/0112 00000KT P6SM SCT015
      TEMPO 3012/3014 BKN015
     FM301500 07003KT P6SM SKC
     FM010200 00000KT P6SM SKC=



000
FTUS44 KBMX 301100
TAFEET
TAF
KEET 301122Z 3012/0112 00000KT 6SM BR OVC015
     FM301500 04003KT P6SM SKC
     FM010200 00000KT P6SM SKC
     FM010900 00000KT P6SM SKC=



000
FTUS44 KBMX 301100
TAFTOI
TAF
KTOI 301122Z 3012/0112 06004KT P6SM SCT007 OVC015
     FM301800 07003KT P6SM SKC
     FM010200 00000KT P6SM SKC
     FM010800 00000KT 4SM BR SKC=



000
FTUS44 KBMX 301100 AAB
TAFTOI
TAF AMD
KTOI 301104Z 3011/0106 06004KT P6SM OVC015
      TEMPO 3012/3014 4SM BR OVC007
     FM301600 07003KT P6SM SKC=



000
FTUS44 KBMX 301100 AAB
TAFMGM
TAF AMD
KMGM 301103Z 3011/0106 04004KT P6SM OVC015
     FM301500 06003KT P6SM SKC=



000
FTUS44 KBMX 301100 AAC
TAFANB
TAF AMD
KANB 301102Z 3011/0106 00000KT P6SM OVC015
     FM301500 05003KT P6SM SKC=



000
FTUS44 KBMX 301000 AAD
TAFEET
TAF AMD
KEET 301055Z 3011/0106 00000KT 6SM BR OVC015
     FM301500 04003KT P6SM SKC=



000
FTUS44 KBMX 301000 AAC
TAFEET
TAF AMD
KEET 301005Z 3010/0106 00000KT 6SM BR OVC015
      TEMPO 3011/3013 4SM BR OVC007
     FM301500 04003KT P6SM SKC=



000
FTUS44 KBMX 301000 AAB
TAFANB
TAF AMD
KANB 301004Z 3010/0106 00000KT P6SM OVC015
      TEMPO 3011/3013 2SM BR SCT007 OVC015
     FM301500 05003KT P6SM SKC=



000
FTUS44 KBMX 301000 AAA
TAFBHM
TAF AMD
KBHM 301003Z 3010/0106 06003KT P6SM SCT010
      TEMPO 3011/3013 4SM BR BKN010
     FM301500 04003KT P6SM SKC=



000
FTUS44 KBMX 301000 AAA
TAFMGM
TAF AMD
KMGM 301002Z 3010/0106 04004KT P6SM OVC015
      TEMPO 3011/3014 4SM BR OVC007
     FM301500 06003KT P6SM SKC=



000
FTUS44 KBMX 301000 AAA
TAFTOI
TAF AMD
KTOI 301002Z 3010/0106 06004KT P6SM OVC015
      TEMPO 3011/3014 4SM BR OVC007
     FM301600 07003KT P6SM SKC=



000
FTUS44 KBMX 300900 AAB
TAFEET
TAF AMD
KEET 300943Z 3010/0106 00000KT 4SM BR OVC008
     FM301500 04003KT P6SM SKC=



000
FTUS44 KBMX 300800 AAA
TAFEET
TAF AMD
KEET 300832Z 3009/0106 00000KT 4SM BR OVC007
      TEMPO 3009/3012 1SM BR BKN004
     FM301500 04003KT P6SM SKC=



000
FTUS44 KBMX 300600 AAA
TAFANB
TAF AMD
KANB 300626Z 3006/0106 00000KT P6SM BKN015
      TEMPO 3010/3013 4SM BR OVC007
     FM301500 05003KT P6SM SKC=



000
FTUS44 KBMX 300500
TAFMGM
TAF
KMGM 300528Z 3006/0106 04004KT P6SM OVC010
     FM300800 05004KT 4SM BR OVC007
     FM301500 06003KT P6SM SKC=



000
FTUS44 KBMX 300500
TAFTCL
TAF
KTCL 300528Z 3006/0106 05003KT P6SM SKC
     FM301100 00000KT 5SM BR BKN011
     FM301400 07003KT P6SM SKC=



000
FTUS44 KBMX 300500
TAFTOI
TAF
KTOI 300528Z 3006/0106 06004KT P6SM OVC010
     FM300800 05002KT 4SM BR OVC007
     FM301500 07003KT P6SM SKC=



000
FTUS44 KBMX 300500
TAFBHM
TAF
KBHM 300528Z 3006/0106 06003KT P6SM SKC
      TEMPO 3009/3012 4SM BR BKN010
     FM301500 04003KT P6SM SKC=



000
FTUS44 KBMX 300500
TAFEET
TAF
KEET 300528Z 3006/0106 00000KT P6SM SCT010
      TEMPO 3008/3012 4SM BR OVC010
     FM301500 04003KT P6SM SKC=



000
FTUS44 KBMX 300500
TAFANB
TAF
KANB 300528Z 3006/0106 00000KT P6SM BKN020
      TEMPO 3008/3012 4SM BR OVC011
     FM301500 05003KT P6SM SKC=



000
FTUS44 KBMX 300300 AAA
TAFTOI
TAF AMD
KTOI 300307Z 3003/3024 05005KT P6SM BKN011
     FM300700 05002KT 4SM BR OVC007
     FM301500 04003KT P6SM SKC=



000
FTUS44 KBMX 292300
TAFMGM
TAF
KMGM 292340Z 3000/3024 02005KT P6SM SCT050
      TEMPO 3008/3012 4SM BR OVC007
     FM301500 04003KT P6SM SKC=



000
FTUS44 KBMX 292300
TAFTOI
TAF
KTOI 292340Z 3000/3024 07003KT P6SM BKN050
     FM300700 06002KT 4SM BR OVC007
     FM301500 04003KT P6SM SKC=



000
FTUS44 KBMX 292300
TAFEET
TAF
KEET 292340Z 3000/3024 00000KT P6SM BKN090
      TEMPO 3008/3012 4SM BR
     FM301500 04003KT P6SM SKC=



000
FTUS44 KBMX 292300
TAFANB
TAF
KANB 292340Z 3000/3024 09005KT P6SM BKN090
      TEMPO 3008/3012 4SM BR
     FM301500 04003KT P6SM SKC=



000
FTUS44 KBMX 292300
TAFTCL
TAF
KTCL 292340Z 3000/3024 00000KT P6SM BKN090
     FM301500 04003KT P6SM SCT050=



000
FTUS44 KBMX 292300
TAFBHM
TAF
KBHM 292340Z 3000/3024 08005KT P6SM SCT030
     FM300100 00000KT P6SM SCT050
      TEMPO 3008/3012 4SM BR
     FM301500 04003KT P6SM SKC=



000
FTUS44 KBMX 291900 AAA
TAFTOI
TAF AMD
KTOI 291924Z 2919/3018 07007KT P6SM VCSH OVC035
     FM300000 05002KT P6SM BKN050
     FM300700 06002KT 4SM BR OVC007=



000
FTUS44 KBMX 291700 RRA
TAFEET
TAF
KEET 291739Z 2918/3018 VRB03KT P6SM OVC035
     FM300000 00000KT P6SM SCT050
      TEMPO 3008/3012 4SM BR=



000
FTUS44 KBMX 291700 RRA
TAFBHM
TAF
KBHM 291739Z 2918/3018 06003KT P6SM SCT035 BKN050
     FM300100 00000KT P6SM SCT050
      TEMPO 3008/3012 4SM BR=



000
FTUS44 KBMX 291700 RRA
TAFANB
TAF
KANB 291739Z 2918/3018 05004KT P6SM SCT022 OVC050
      TEMPO 2918/2920 BKN022
     FM300000 06002KT P6SM SCT050
      TEMPO 3008/3012 4SM BR=



000
FTUS44 KBMX 291700 RRA
TAFTCL
TAF
KTCL 291739Z 2918/3018 04003KT P6SM SCT035 BKN050
     FM300100 00000KT P6SM SCT050=



000
FTUS44 KBMX 291700 RRA
TAFTOI
TAF
KTOI 291739Z 2918/3018 06006KT P6SM VCSH OVC017
     FM292000 06006KT P6SM VCSH OVC025
     FM300000 06002KT P6SM BKN040
     FM300700 06002KT 4SM BR OVC007=



000
FTUS44 KBMX 291700 RRA
TAFMGM
TAF
KMGM 291739Z 2918/3018 36006KT P6SM VCSH SCT035 OVC045
     FM300000 06002KT P6SM SCT050
      TEMPO 3008/3012 4SM BR OVC007=



000
FTUS44 KBMX 291400 AAA
TAFTOI
TAF AMD
KTOI 291422Z 2914/3012 05004KT 5SM BR VCSH BKN009 BKN035 OVC045
      TEMPO 2914/2916 -RA
     FM291600 04006KT P6SM VCSH BKN015 OVC045
      TEMPO 2916/2920 5SM -RA BR
     FM292000 04006KT P6SM BKN035 OVC050
     FM300600 06002KT 4SM BR BKN007=



000
FTUS44 KBMX 291300 AAA
TAFEET
TAF AMD
KEET 291346Z 2914/3012 VRB03KT P6SM OVC014
      TEMPO 2915/2917 BKN025
     FM291700 01005KT P6SM BKN035
     FM300000 00000KT P6SM SCT040=



000
FTUS44 KBMX 291100 CCA
TAFTOI
TAF COR
KTOI 291142Z 2912/3012 05004KT P6SM VCSH OVC005
     FM291600 04006KT P6SM VCSH SCT007 OVC020
      TEMPO 2916/2918 4SM -RA BKN015
     FM292200 04006KT P6SM BKN035 OVC050
     FM300600 06002KT 4SM BR BKN007=



000
FTUS44 KBMX 291100
TAFBHM
TAF
KBHM 291120Z 2912/3012 06003KT P6SM SCT020 BKN035
      TEMPO 2914/2917 BKN025
     FM291700 03006KT P6SM BKN035
     FM300200 00000KT P6SM SCT040=



000
FTUS44 KBMX 291100
TAFMGM
TAF
KMGM 291120Z 2912/3012 06007KT P6SM VCSH OVC011
      TEMPO 2913/2916 4SM -RA BKN008
     FM291600 05007KT P6SM OVC020
     FM292200 05007KT P6SM BKN035
     FM300300 06003KT P6SM SCT007 SCT035=



000
FTUS44 KBMX 291100
TAFEET
TAF
KEET 291120Z 2912/3012 00000KT P6SM SCT020 BKN050
      TEMPO 2913/2917 BKN025
     FM291800 01005KT P6SM BKN035
     FM300000 00000KT P6SM SCT040=



000
FTUS44 KBMX 291100
TAFTCL
TAF
KTCL 291120Z 2912/3012 36003KT P6SM BKN015
     FM291600 04005KT P6SM BKN025
     FM291800 03005KT P6SM BKN035
     FM300000 00000KT P6SM SCT040=



000
FTUS44 KBMX 291100
TAFANB
TAF
KANB 291120Z 2912/3012 06003KT P6SM SCT025 BKN035 OVC040
      TEMPO 2913/2917 BKN025
     FM291900 05004KT P6SM BKN035
     FM300000 00000KT P6SM SCT040=



000
FTUS44 KBMX 291100
TAFTOI
TAF
KTOI 291120Z 2912/3012 05004KT P6SM VCSH OVC007
     FM291600 04006KT P6SM VCSH SCT010 OVC020
      TEMPO 2916/2918 4SM -RA BKN015
     FM292200 04006KT P6SM BKN035 OVC050
     FM300600 06002KT 4SM BR BKN007=



000
FTUS44 KBMX 291000 AAA
TAFTCL
TAF AMD
KTCL 291016Z 2910/3006 08003KT P6SM SCT020 OVC120
     FM291200 08003KT P6SM OVC015
     FM291600 04005KT P6SM BKN025
     FM291800 03005KT P6SM BKN035
     FM300000 00000KT P6SM FEW040=



000
FTUS44 KBMX 291000 AAA
TAFANB
TAF AMD
KANB 291015Z 2910/3006 06003KT P6SM BKN020 OVC050
     FM291130 05003KT P6SM OVC015
     FM291800 05004KT P6SM BKN025
     FM292100 05004KT P6SM BKN035
     FM300000 00000KT P6SM FEW040=



000
FTUS44 KBMX 291000 AAA
TAFEET
TAF AMD
KEET 291015Z 2910/3006 00000KT P6SM SCT020 OVC080
      TEMPO 2911/2912 BKN020
     FM291200 00000KT P6SM OVC015
     FM291600 01003KT P6SM BKN025
     FM291900 01005KT P6SM BKN035
     FM300000 00000KT P6SM FEW040=



000
FTUS44 KBMX 291000 AAA
TAFBHM
TAF AMD
KBHM 291014Z 2910/3006 06003KT P6SM OVC080
     FM291130 06003KT P6SM OVC015
     FM291600 05006KT P6SM BKN025
     FM291900 03006KT P6SM BKN035
     FM300000 00000KT P6SM FEW040=



    US Dept of Commerce
    National Oceanic and Atmospheric Administration
    National Weather Service
    1325 East West Highway
    Silver Spring, MD 20910
    Page Author: NWS Internet Services Team
Disclaimer
Information Quality
Credits
Glossary
Privacy Policy
Freedom of Information Act (FOIA)
About Us
Career Opportunities